KTHA/THA METAR and TAF weather

Enter ICAO airport designator
Station Type Date Time Source
KTHA METAR 2020/06/03 21:15 UTC NOAA

KTHA 032115Z AUTO 34006KT 10SM FEW039 SCT046 SCT055 28/20 A2994 RMK A01


Station Type Date Time Source
KTHA Decoded METAR 2020/06/03 21:15 UTC NOAA

Station name not available
Jun 03, 2020 - 05:15 PM EDT / 2020.06.03 2115 UTC
Wind: from the NNW (340 degrees) at 7 MPH (6 KT):0
Visibility: 10 mile(s):0
Sky conditions: partly cloudy
Temperature: 82 F (28 C)
Dew Point: 68 F (20 C)
Relative Humidity: 61%
Pressure (altimeter): 29.94 in. Hg (1013 hPa)
ob: KTHA 032115Z AUTO 34006KT 10SM FEW039 SCT046 SCT055 28/20 A2994 RMK A01
cycle: 21

Station Type Date Time Source
KTHA TAF UTC NOAA

Error!

Example: see airport list